Time;durP1;ratioP1;P1;durP2;ratioP2;P2;SDS_P1;SDS_P2;PMS_P1;PMS_P2;Temp;Humidity;BMP_temperature;BMP_pressure;BME280_temperature;BME280_humidity;BME280_pressure;Samples;Min_cycle;Max_cycle;Signal;HPM_P1;HPM_P2
2023/12/20 00:01:30;;;;;;;10.43;3.17;;;;;;;;;;5037023;28;20465;-80
2023/12/20 00:03:57;;;;;;;5.90;2.63;;;;;;;;;;5037642;28;20455;-80
2023/12/20 00:06:24;;;;;;;19.57;4.30;;;;;;;;;;5038050;28;20555;-80
2023/12/20 00:08:50;;;;;;;14.93;3.20;;;;;;;;;;5037932;28;20483;-80
2023/12/20 00:11:17;;;;;;;11.47;2.87;;;;;;;;;;5035765;28;20468;-80
2023/12/20 00:13:45;;;;;;;12.93;3.30;;;;;;;;;;5038520;28;20445;-80
2023/12/20 00:16:13;;;;;;;6.63;2.43;;;;;;;;;;5037341;28;21055;-81
2023/12/20 00:18:39;;;;;;;6.63;2.80;;;;;;;;;;5038227;28;20808;-80
2023/12/20 00:21:06;;;;;;;12.87;3.00;;;;;;;;;;5036829;28;20471;-79
2023/12/20 00:23:32;;;;;;;16.33;2.93;;;;;;;;;;5037989;28;20532;-81
2023/12/20 00:25:59;;;;;;;11.57;2.97;;;;;;;;;;5035746;28;20469;-81
2023/12/20 00:28:25;;;;;;;7.77;3.23;;;;;;;;;;5036201;28;20477;-81
2023/12/20 00:30:52;;;;;;;5.47;2.73;;;;;;;;;;5036465;28;20469;-81
2023/12/20 00:33:19;;;;;;;8.60;2.37;;;;;;;;;;5036427;28;20444;-82
2023/12/20 00:35:46;;;;;;;10.30;2.33;;;;;;;;;;5035617;28;20472;-79
2023/12/20 00:38:13;;;;;;;6.70;2.90;;;;;;;;;;5036397;28;20466;-82
2023/12/20 00:40:39;;;;;;;6.50;4.03;;;;;;;;;;5036279;28;20452;-81
2023/12/20 00:43:06;;;;;;;6.23;2.10;;;;;;;;;;5037284;28;20524;-80
2023/12/20 00:45:34;;;;;;;15.10;3.17;;;;;;;;;;5036063;28;20539;-79
2023/12/20 00:48:00;;;;;;;6.10;2.50;;;;;;;;;;5036437;28;20528;-81
2023/12/20 00:50:30;;;;;;;14.33;2.90;;;;;;;;;;5035116;28;20439;-81
2023/12/20 00:52:56;;;;;;;12.50;2.97;;;;;;;;;;5035280;28;20445;-80
2023/12/20 00:55:24;;;;;;;7.77;2.33;;;;;;;;;;5035286;28;20567;-79
2023/12/20 00:57:51;;;;;;;13.63;2.17;;;;;;;;;;5035416;28;20459;-79
2023/12/20 01:00:17;;;;;;;6.37;3.07;;;;;;;;;;5036247;28;20527;-80
2023/12/20 01:02:46;;;;;;;11.73;2.30;;;;;;;;;;5035552;28;20460;-80
2023/12/20 01:05:12;;;;;;;10.60;2.60;;;;;;;;;;5034848;28;20831;-80
2023/12/20 01:07:40;;;;;;;8.67;3.53;;;;;;;;;;5034892;28;20548;-81
2023/12/20 01:10:07;;;;;;;9.87;2.50;;;;;;;;;;5035164;28;20846;-80
2023/12/20 01:12:33;;;;;;;7.57;2.40;;;;;;;;;;5034981;28;20479;-81
2023/12/20 01:15:01;;;;;;;8.07;2.43;;;;;;;;;;5034244;28;20518;-79
2023/12/20 01:17:28;;;;;;;12.07;2.47;;;;;;;;;;5034832;28;20551;-79
2023/12/20 01:19:54;;;;;;;11.47;3.83;;;;;;;;;;5035504;28;20441;-79
2023/12/20 01:22:21;;;;;;;9.83;3.23;;;;;;;;;;5034956;28;20468;-80
2023/12/20 01:24:51;;;;;;;12.13;3.27;;;;;;;;;;5035312;28;20464;-80
2023/12/20 01:27:17;;;;;;;18.37;4.07;;;;;;;;;;5033798;28;20547;-81
2023/12/20 01:29:45;;;;;;;8.40;2.40;;;;;;;;;;5034559;28;20519;-80
2023/12/20 01:32:11;;;;;;;13.63;2.20;;;;;;;;;;5034347;28;20469;-81
2023/12/20 01:34:39;;;;;;;5.17;1.80;;;;;;;;;;5034621;28;20471;-80
2023/12/20 01:37:06;;;;;;;9.93;2.27;;;;;;;;;;5034493;28;20472;-80
2023/12/20 01:39:33;;;;;;;7.57;3.30;;;;;;;;;;5035187;28;20437;-80
2023/12/20 01:42:04;;;;;;;12.33;3.50;;;;;;;;;;5034803;28;20475;-80
2023/12/20 01:44:30;;;;;;;9.53;2.70;;;;;;;;;;5034703;28;20550;-80
2023/12/20 01:46:57;;;;;;;10.33;2.77;;;;;;;;;;5034423;28;20475;-79
2023/12/20 01:49:23;;;;;;;13.23;3.27;;;;;;;;;;5034299;28;20623;-80
2023/12/20 01:51:50;;;;;;;10.97;2.70;;;;;;;;;;5034403;28;20476;-80
2023/12/20 01:54:17;;;;;;;7.07;2.20;;;;;;;;;;5034555;28;20885;-80
2023/12/20 01:56:44;;;;;;;7.13;2.47;;;;;;;;;;5034532;28;20473;-79
2023/12/20 01:59:13;;;;;;;3.83;1.80;;;;;;;;;;5033610;28;20507;-80
2023/12/20 02:01:39;;;;;;;10.63;3.37;;;;;;;;;;5034135;28;20474;-80
2023/12/20 02:04:06;;;;;;;19.13;2.90;;;;;;;;;;5034332;28;20468;-80
2023/12/20 02:06:34;;;;;;;10.50;3.40;;;;;;;;;;5033917;28;20548;-80
2023/12/20 02:09:01;;;;;;;12.63;4.40;;;;;;;;;;5034416;28;20484;-80
2023/12/20 02:11:30;;;;;;;8.83;3.07;;;;;;;;;;5035073;28;21130;-81
2023/12/20 02:13:56;;;;;;;9.77;3.20;;;;;;;;;;5034951;28;20441;-81
2023/12/20 02:16:25;;;;;;;8.23;3.13;;;;;;;;;;5034014;28;20467;-80
2023/12/20 02:18:52;;;;;;;16.03;3.80;;;;;;;;;;5035503;28;20437;-82
2023/12/20 02:21:18;;;;;;;13.40;3.37;;;;;;;;;;5034046;28;20473;-82
2023/12/20 02:23:47;;;;;;;14.90;3.50;;;;;;;;;;5034191;28;20806;-82
2023/12/20 02:26:14;;;;;;;26.87;6.87;;;;;;;;;;5034197;28;20475;-80
2023/12/20 02:28:40;;;;;;;11.57;3.83;;;;;;;;;;5034361;28;20445;-81
2023/12/20 02:31:07;;;;;;;19.27;5.87;;;;;;;;;;5032713;28;20475;-81
2023/12/20 02:33:33;;;;;;;10.07;3.40;;;;;;;;;;5034551;28;20441;-81
2023/12/20 02:36:00;;;;;;;7.70;3.13;;;;;;;;;;5033085;28;20472;-81
2023/12/20 02:38:26;;;;;;;13.03;3.10;;;;;;;;;;5034805;28;20529;-81
2023/12/20 02:40:57;;;;;;;7.43;3.03;;;;;;;;;;5037681;28;20490;-81
2023/12/20 02:43:26;;;;;;;13.73;3.70;;;;;;;;;;5037970;28;20428;-81
2023/12/20 02:45:52;;;;;;;13.53;4.60;;;;;;;;;;5036438;28;20472;-81
2023/12/20 02:48:19;;;;;;;11.80;3.23;;;;;;;;;;5037940;28;20547;-81
2023/12/20 02:50:49;;;;;;;12.43;2.73;;;;;;;;;;5037617;28;20465;-80
2023/12/20 02:53:15;;;;;;;11.77;3.47;;;;;;;;;;5037140;28;20978;-81
2023/12/20 02:55:42;;;;;;;13.23;2.80;;;;;;;;;;5035799;28;20468;-81
2023/12/20 02:58:10;;;;;;;10.23;2.60;;;;;;;;;;5037716;28;20445;-81
2023/12/20 03:00:38;;;;;;;15.57;2.77;;;;;;;;;;5036690;28;20464;-79
2023/12/20 03:03:05;;;;;;;11.63;2.70;;;;;;;;;;5037950;28;20439;-79
2023/12/20 03:05:33;;;;;;;14.67;4.73;;;;;;;;;;5037562;28;20464;-81
2023/12/20 03:08:00;;;;;;;11.40;3.00;;;;;;;;;;5038019;28;20519;-80
2023/12/20 03:10:26;;;;;;;11.67;2.70;;;;;;;;;;5036644;28;20480;-80
2023/12/20 03:12:52;;;;;;;13.43;3.63;;;;;;;;;;5037162;28;20531;-80
2023/12/20 03:15:20;;;;;;;18.20;3.40;;;;;;;;;;5037687;28;20460;-79
2023/12/20 03:17:47;;;;;;;11.27;2.60;;;;;;;;;;5035802;28;20958;-80
2023/12/20 03:20:13;;;;;;;9.67;3.23;;;;;;;;;;5036407;28;20919;-79
2023/12/20 03:22:40;;;;;;;11.17;3.23;;;;;;;;;;5037208;28;20468;-80
2023/12/20 03:25:07;;;;;;;12.77;2.50;;;;;;;;;;5037449;28;20461;-80
2023/12/20 03:27:35;;;;;;;23.23;2.43;;;;;;;;;;5035625;28;21002;-80
2023/12/20 03:30:01;;;;;;;8.40;2.87;;;;;;;;;;5037371;28;20484;-79
2023/12/20 03:32:29;;;;;;;13.07;3.60;;;;;;;;;;5036941;28;21041;-79
2023/12/20 03:34:56;;;;;;;12.40;2.93;;;;;;;;;;5037374;28;20465;-80
2023/12/20 03:37:23;;;;;;;10.10;2.80;;;;;;;;;;5036383;28;20472;-80
2023/12/20 03:39:49;;;;;;;9.67;2.70;;;;;;;;;;5036418;28;20441;-80
2023/12/20 03:42:17;;;;;;;10.90;3.17;;;;;;;;;;5036813;28;20476;-79
2023/12/20 03:44:43;;;;;;;13.90;3.40;;;;;;;;;;5037343;28;20461;-79
2023/12/20 03:47:10;;;;;;;5.90;2.43;;;;;;;;;;5036462;28;20468;-80
2023/12/20 03:49:38;;;;;;;14.40;3.50;;;;;;;;;;5035755;28;21016;-80
2023/12/20 03:52:07;;;;;;;15.73;4.00;;;;;;;;;;5035688;28;21018;-80
2023/12/20 03:54:34;;;;;;;12.03;3.50;;;;;;;;;;5036466;28;20531;-80
2023/12/20 03:57:00;;;;;;;14.63;4.00;;;;;;;;;;5035940;28;20469;-79
2023/12/20 03:59:26;;;;;;;11.30;3.20;;;;;;;;;;5036790;28;20421;-80
2023/12/20 04:01:54;;;;;;;14.60;3.77;;;;;;;;;;5036230;28;20472;-79
2023/12/20 04:04:21;;;;;;;12.20;3.90;;;;;;;;;;5036687;28;20543;-80
2023/12/20 04:06:49;;;;;;;9.97;3.97;;;;;;;;;;5034911;28;20482;-79
2023/12/20 04:09:15;;;;;;;12.17;4.23;;;;;;;;;;5035901;28;20575;-80
2023/12/20 04:11:43;;;;;;;7.10;3.63;;;;;;;;;;5035520;28;20480;-79
2023/12/20 04:14:10;;;;;;;11.53;3.20;;;;;;;;;;5036169;28;20473;-80
2023/12/20 04:16:36;;;;;;;12.20;3.90;;;;;;;;;;5035676;28;20473;-79
2023/12/20 04:19:03;;;;;;;11.80;3.23;;;;;;;;;;5035944;28;20984;-80
2023/12/20 04:21:29;;;;;;;13.93;2.83;;;;;;;;;;5036058;28;20469;-80
2023/12/20 04:23:57;;;;;;;7.43;2.50;;;;;;;;;;5036217;28;20818;-79
2023/12/20 04:26:23;;;;;;;9.53;2.57;;;;;;;;;;5035678;28;20475;-80
2023/12/20 04:28:50;;;;;;;9.43;3.20;;;;;;;;;;5036046;28;20436;-79
2023/12/20 04:31:16;;;;;;;10.83;3.27;;;;;;;;;;5035585;28;20846;-79
2023/12/20 04:33:43;;;;;;;13.40;3.40;;;;;;;;;;5036118;28;20436;-80
2023/12/20 04:36:10;;;;;;;19.13;3.90;;;;;;;;;;5035750;28;20994;-79
2023/12/20 04:38:39;;;;;;;12.20;3.13;;;;;;;;;;5036403;28;20870;-80
2023/12/20 04:41:08;;;;;;;9.77;3.67;;;;;;;;;;5035602;28;20874;-80
2023/12/20 04:43:35;;;;;;;14.23;3.00;;;;;;;;;;5036123;28;20437;-79
2023/12/20 04:46:01;;;;;;;15.20;3.13;;;;;;;;;;5035703;28;20487;-79
2023/12/20 04:48:28;;;;;;;12.33;3.73;;;;;;;;;;5035619;28;20437;-79
2023/12/20 04:50:55;;;;;;;14.67;4.23;;;;;;;;;;5035186;28;20476;-80
2023/12/20 04:53:21;;;;;;;21.20;4.40;;;;;;;;;;5035245;28;20949;-80
2023/12/20 04:55:48;;;;;;;8.90;3.20;;;;;;;;;;5034996;28;20564;-79
2023/12/20 04:58:15;;;;;;;15.93;3.67;;;;;;;;;;5035409;28;20934;-80
2023/12/20 05:00:42;;;;;;;9.43;3.60;;;;;;;;;;5034885;28;20485;-80
2023/12/20 05:03:09;;;;;;;11.53;3.83;;;;;;;;;;5034892;28;20467;-80
2023/12/20 05:05:35;;;;;;;12.10;4.37;;;;;;;;;;5035142;28;20524;-80
2023/12/20 05:08:02;;;;;;;7.43;3.07;;;;;;;;;;5034784;28;20936;-80
2023/12/20 05:10:28;;;;;;;8.10;3.43;;;;;;;;;;5033181;28;20475;-80
2023/12/20 05:12:55;;;;;;;13.13;3.57;;;;;;;;;;5036010;28;20519;-80
2023/12/20 05:15:23;;;;;;;22.93;4.50;;;;;;;;;;5035164;28;20833;-79
2023/12/20 05:17:50;;;;;;;18.13;3.97;;;;;;;;;;5035042;28;20528;-80
2023/12/20 05:20:17;;;;;;;13.40;4.73;;;;;;;;;;5034716;28;20437;-80
2023/12/20 05:22:45;;;;;;;19.17;5.67;;;;;;;;;;5035637;28;20460;-79
2023/12/20 05:25:13;;;;;;;14.60;3.47;;;;;;;;;;5034952;28;20461;-80
2023/12/20 05:27:40;;;;;;;11.70;4.27;;;;;;;;;;5033366;28;20472;-80
2023/12/20 05:30:07;;;;;;;13.87;3.50;;;;;;;;;;5033756;28;20476;-80
2023/12/20 05:32:35;;;;;;;30.03;5.83;;;;;;;;;;5034391;28;20471;-80
2023/12/20 05:35:03;;;;;;;16.80;4.23;;;;;;;;;;5034709;28;20468;-80
2023/12/20 05:37:29;;;;;;;12.43;4.00;;;;;;;;;;5034091;28;20473;-79
2023/12/20 05:39:57;;;;;;;15.37;4.10;;;;;;;;;;5034796;28;20520;-80
2023/12/20 05:42:23;;;;;;;11.87;4.10;;;;;;;;;;5034366;28;20478;-80
2023/12/20 05:44:52;;;;;;;8.77;3.43;;;;;;;;;;5033207;28;21088;-80
2023/12/20 05:47:18;;;;;;;22.83;4.77;;;;;;;;;;5033891;28;20497;-79
2023/12/20 05:49:46;;;;;;;15.70;4.33;;;;;;;;;;5033955;28;20512;-80
2023/12/20 05:52:12;;;;;;;16.13;4.03;;;;;;;;;;5034111;28;20469;-81
2023/12/20 05:54:39;;;;;;;17.63;4.03;;;;;;;;;;5034290;28;20475;-81
2023/12/20 05:57:06;;;;;;;21.63;3.70;;;;;;;;;;5034284;28;20472;-81
2023/12/20 05:59:32;;;;;;;19.80;3.80;;;;;;;;;;5034776;28;20906;-81
2023/12/20 06:01:59;;;;;;;16.17;5.70;;;;;;;;;;5034455;28;20473;-81
2023/12/20 06:04:26;;;;;;;17.70;5.73;;;;;;;;;;5034389;28;20473;-81
2023/12/20 06:06:54;;;;;;;16.70;4.23;;;;;;;;;;5034236;28;20479;-81
2023/12/20 06:09:20;;;;;;;21.53;5.47;;;;;;;;;;5034563;28;20531;-81
2023/12/20 06:11:47;;;;;;;15.10;4.10;;;;;;;;;;5033335;28;20826;-81
2023/12/20 06:14:13;;;;;;;14.10;4.37;;;;;;;;;;5034157;28;20457;-81
2023/12/20 06:16:39;;;;;;;21.90;5.37;;;;;;;;;;5034163;28;20472;-81
2023/12/20 06:19:06;;;;;;;18.97;4.70;;;;;;;;;;5034867;28;20528;-81
2023/12/20 06:21:33;;;;;;;16.00;4.50;;;;;;;;;;5034425;28;20476;-81
2023/12/20 06:24:04;;;;;;;16.10;4.30;;;;;;;;;;5033821;28;20444;-81
2023/12/20 06:26:30;;;;;;;24.17;4.83;;;;;;;;;;5033468;28;21016;-81
2023/12/20 06:28:56;;;;;;;15.80;4.87;;;;;;;;;;5034378;28;20446;-81
2023/12/20 06:31:23;;;;;;;27.17;6.93;;;;;;;;;;5034217;28;20555;-81
2023/12/20 06:33:57;;;;;;;25.77;4.87;;;;;;;;;;5034014;28;20492;-81
2023/12/20 06:36:26;;;;;;;22.17;5.50;;;;;;;;;;5034124;28;20473;-81
2023/12/20 06:38:53;;;;;;;23.47;5.77;;;;;;;;;;5034082;28;20463;-79
2023/12/20 06:41:20;;;;;;;18.67;4.73;;;;;;;;;;5033723;28;20479;-79
2023/12/20 06:43:48;;;;;;;17.10;4.60;;;;;;;;;;5034240;28;20464;-81
2023/12/20 06:46:14;;;;;;;27.63;5.67;;;;;;;;;;5033027;28;20477;-80
2023/12/20 06:48:41;;;;;;;14.93;4.90;;;;;;;;;;5033640;28;20443;-79
2023/12/20 06:51:07;;;;;;;26.23;7.93;;;;;;;;;;5033867;28;20559;-81
2023/12/20 06:53:34;;;;;;;17.07;5.13;;;;;;;;;;5033541;28;20443;-81
2023/12/20 06:56:00;;;;;;;16.40;5.00;;;;;;;;;;5033050;28;20477;-81
2023/12/20 06:58:28;;;;;;;22.07;5.10;;;;;;;;;;5034532;28;20881;-80
2023/12/20 07:00:54;;;;;;;13.60;4.27;;;;;;;;;;5033708;28;20481;-80
2023/12/20 07:03:21;;;;;;;16.33;5.67;;;;;;;;;;5034217;28;20500;-81
2023/12/20 07:05:49;;;;;;;18.43;6.20;;;;;;;;;;5032348;28;20476;-80
2023/12/20 07:08:15;;;;;;;19.27;4.83;;;;;;;;;;5034644;28;20451;-79
2023/12/20 07:10:42;;;;;;;11.33;5.13;;;;;;;;;;5033378;28;20463;-80
2023/12/20 07:13:09;;;;;;;21.23;5.20;;;;;;;;;;5033306;28;20443;-80
2023/12/20 07:15:37;;;;;;;18.30;5.17;;;;;;;;;;5032735;28;20892;-80
2023/12/20 07:18:03;;;;;;;16.60;4.73;;;;;;;;;;5034423;28;20527;-81
2023/12/20 07:20:30;;;;;;;22.47;7.37;;;;;;;;;;5033463;28;20901;-80
2023/12/20 07:22:57;;;;;;;19.63;5.03;;;;;;;;;;5033636;28;20437;-80
2023/12/20 07:25:23;;;;;;;18.67;4.80;;;;;;;;;;5034220;28;20456;-80
2023/12/20 07:27:54;;;;;;;24.80;5.30;;;;;;;;;;5037606;28;20956;-80
2023/12/20 07:30:20;;;;;;;31.83;5.47;;;;;;;;;;5036998;28;20464;-80
2023/12/20 07:32:48;;;;;;;22.97;4.93;;;;;;;;;;5037565;28;20444;-80
2023/12/20 07:35:16;;;;;;;22.33;6.37;;;;;;;;;;5037710;28;20475;-80
2023/12/20 07:37:45;;;;;;;21.33;5.37;;;;;;;;;;5037037;28;20470;-81
2023/12/20 07:40:11;;;;;;;30.47;6.83;;;;;;;;;;5036764;28;20445;-80
2023/12/20 07:42:38;;;;;;;17.57;5.30;;;;;;;;;;5037373;28;20544;-79
2023/12/20 07:45:05;;;;;;;16.90;5.33;;;;;;;;;;5037586;28;20471;-79
2023/12/20 07:47:31;;;;;;;24.07;6.40;;;;;;;;;;5036808;28;21002;-79
2023/12/20 07:49:59;;;;;;;19.30;6.60;;;;;;;;;;5036806;28;20447;-82
2023/12/20 07:52:26;;;;;;;15.57;6.00;;;;;;;;;;5036149;28;20473;-79
2023/12/20 07:54:55;;;;;;;15.63;5.20;;;;;;;;;;5036534;28;20830;-80
2023/12/20 07:57:22;;;;;;;26.13;5.40;;;;;;;;;;5036478;28;20507;-81
2023/12/20 07:59:48;;;;;;;23.20;6.97;;;;;;;;;;5036751;28;20428;-81
2023/12/20 08:02:14;;;;;;;17.83;6.67;;;;;;;;;;5036060;28;20473;-81
2023/12/20 08:04:42;;;;;;;15.10;5.03;;;;;;;;;;5036314;28;20889;-81
2023/12/20 08:07:10;;;;;;;18.07;5.67;;;;;;;;;;5035525;28;20469;-81
2023/12/20 08:09:37;;;;;;;25.40;5.20;;;;;;;;;;5036307;28;20443;-81
2023/12/20 08:12:03;;;;;;;17.97;5.83;;;;;;;;;;5035862;28;20479;-81
2023/12/20 08:14:30;;;;;;;29.90;6.03;;;;;;;;;;5036659;28;20460;-81
2023/12/20 08:16:57;;;;;;;20.33;5.63;;;;;;;;;;5036065;28;20483;-81
2023/12/20 08:19:24;;;;;;;20.77;5.07;;;;;;;;;;5036192;28;20436;-81
2023/12/20 08:21:52;;;;;;;20.00;5.80;;;;;;;;;;5034330;28;20599;-81
2023/12/20 08:24:20;;;;;;;19.70;4.80;;;;;;;;;;5036161;28;21018;-81
2023/12/20 08:26:47;;;;;;;17.37;4.83;;;;;;;;;;5035823;28;20469;-81
2023/12/20 08:29:14;;;;;;;28.77;6.00;;;;;;;;;;5035201;28;20452;-81
2023/12/20 08:31:40;;;;;;;24.57;5.40;;;;;;;;;;5035691;28;20473;-81
2023/12/20 08:34:07;;;;;;;27.80;5.27;;;;;;;;;;5036168;28;20461;-81
2023/12/20 08:36:34;;;;;;;19.77;5.83;;;;;;;;;;5035235;28;20579;-80
2023/12/20 08:39:03;;;;;;;10.87;5.57;;;;;;;;;;5036212;28;20439;-80
2023/12/20 08:41:31;;;;;;;24.33;4.70;;;;;;;;;;5035988;28;21056;-80
2023/12/20 08:43:59;;;;;;;16.93;5.40;;;;;;;;;;5036010;28;20437;-81
2023/12/20 08:46:26;;;;;;;21.10;4.73;;;;;;;;;;5036180;28;20476;-80
2023/12/20 08:48:52;;;;;;;14.97;5.30;;;;;;;;;;5036744;28;20440;-81
2023/12/20 08:51:19;;;;;;;17.17;5.13;;;;;;;;;;5035846;28;20476;-81
2023/12/20 08:53:47;;;;;;;14.07;4.03;;;;;;;;;;5035771;28;20810;-81
2023/12/20 08:56:13;;;;;;;16.00;4.50;;;;;;;;;;5035654;28;20481;-81
2023/12/20 08:58:41;;;;;;;20.67;4.70;;;;;;;;;;5035602;28;20449;-80
2023/12/20 09:01:09;;;;;;;22.17;4.07;;;;;;;;;;5035928;28;20468;-80
2023/12/20 09:03:36;;;;;;;16.50;4.90;;;;;;;;;;5034443;28;20452;-81
2023/12/20 09:06:02;;;;;;;15.17;5.00;;;;;;;;;;5035677;28;20989;-80
2023/12/20 09:08:29;;;;;;;15.67;4.37;;;;;;;;;;5035706;28;20808;-80
2023/12/20 09:10:55;;;;;;;34.87;6.10;;;;;;;;;;5035464;28;20564;-80
2023/12/20 09:13:27;;;;;;;22.47;4.37;;;;;;;;;;5035268;28;20432;-81
2023/12/20 09:15:55;;;;;;;13.17;5.20;;;;;;;;;;5035623;28;20479;-81
2023/12/20 09:18:22;;;;;;;15.77;4.73;;;;;;;;;;5036334;28;20439;-81
2023/12/20 09:20:48;;;;;;;17.53;4.67;;;;;;;;;;5035867;28;21020;-80
2023/12/20 09:23:15;;;;;;;14.70;5.20;;;;;;;;;;5037097;28;20441;-81
2023/12/20 09:25:41;;;;;;;13.70;5.20;;;;;;;;;;5035173;28;20479;-81
2023/12/20 09:28:07;;;;;;;18.40;4.70;;;;;;;;;;5036287;28;20447;-80
2023/12/20 09:30:39;;;;;;;11.53;3.20;;;;;;;;;;5034873;28;21019;-81
2023/12/20 09:33:07;;;;;;;14.37;2.23;;;;;;;;;;5035709;28;20425;-81
2023/12/20 09:35:34;;;;;;;10.90;2.27;;;;;;;;;;5035093;28;20464;-81
2023/12/20 09:38:00;;;;;;;9.73;2.53;;;;;;;;;;5035711;28;20444;-81
2023/12/20 09:40:27;;;;;;;7.50;1.90;;;;;;;;;;5034540;28;20441;-81
2023/12/20 09:42:57;;;;;;;4.93;1.27;;;;;;;;;;5035789;28;20469;-81
2023/12/20 09:45:24;;;;;;;3.37;1.20;;;;;;;;;;5035191;28;20467;-80
2023/12/20 09:47:51;;;;;;;4.20;1.80;;;;;;;;;;5036137;28;20440;-80
2023/12/20 09:50:20;;;;;;;4.17;1.93;;;;;;;;;;5036618;28;20955;-80
2023/12/20 09:52:47;;;;;;;3.70;0.90;;;;;;;;;;5037039;28;20481;-81
2023/12/20 09:55:14;;;;;;;2.30;1.33;;;;;;;;;;5036866;28;20820;-81
2023/12/20 09:57:40;;;;;;;6.60;1.80;;;;;;;;;;5036183;28;20476;-81
2023/12/20 10:00:08;;;;;;;8.53;1.00;;;;;;;;;;5037411;28;20440;-80
2023/12/20 10:02:37;;;;;;;6.20;1.30;;;;;;;;;;5036199;28;20850;-81
2023/12/20 10:05:08;;;;;;;4.87;1.60;;;;;;;;;;5035804;28;20456;-81
2023/12/20 10:07:36;;;;;;;5.27;1.50;;;;;;;;;;5037090;28;20481;-81
2023/12/20 10:10:03;;;;;;;7.60;2.03;;;;;;;;;;5036770;28;20813;-81
2023/12/20 10:12:29;;;;;;;7.17;3.13;;;;;;;;;;5036889;28;20477;-81
2023/12/20 10:14:56;;;;;;;8.83;2.23;;;;;;;;;;5036144;28;20495;-80
2023/12/20 10:17:23;;;;;;;9.17;1.60;;;;;;;;;;5035871;28;20575;-80
2023/12/20 10:19:49;;;;;;;4.53;1.30;;;;;;;;;;5037118;28;21008;-80
2023/12/20 10:22:16;;;;;;;4.37;1.27;;;;;;;;;;5036198;28;20479;-81
2023/12/20 10:24:43;;;;;;;7.77;1.63;;;;;;;;;;5036992;28;20463;-81
2023/12/20 10:27:10;;;;;;;4.00;1.60;;;;;;;;;;5036416;28;20479;-81
2023/12/20 10:29:37;;;;;;;2.83;1.30;;;;;;;;;;5037473;28;20441;-80
2023/12/20 10:32:18;;;;;;;6.23;1.53;;;;;;;;;;5035251;28;20982;-80
2023/12/20 10:34:45;;;;;;;3.13;1.30;;;;;;;;;;5036617;28;20548;-80
2023/12/20 10:37:11;;;;;;;5.63;1.70;;;;;;;;;;5036049;28;20560;-80
2023/12/20 10:39:39;;;;;;;2.87;1.47;;;;;;;;;;5036408;28;20449;-80
2023/12/20 10:42:08;;;;;;;2.30;1.27;;;;;;;;;;5036065;28;20536;-80
2023/12/20 10:44:35;;;;;;;3.93;1.50;;;;;;;;;;5036285;28;20464;-81
2023/12/20 10:47:03;;;;;;;6.00;1.50;;;;;;;;;;5035095;28;20479;-80
2023/12/20 10:49:31;;;;;;;2.60;1.57;;;;;;;;;;5036378;28;20621;-80
2023/12/20 10:52:00;;;;;;;6.40;1.40;;;;;;;;;;5036457;28;20512;-80
2023/12/20 10:54:27;;;;;;;4.97;1.73;;;;;;;;;;5036185;28;20548;-81
2023/12/20 10:56:55;;;;;;;5.00;1.70;;;;;;;;;;5035460;28;20556;-81
2023/12/20 10:59:24;;;;;;;8.00;1.60;;;;;;;;;;5036568;28;20448;-81
2023/12/20 11:01:51;;;;;;;12.03;3.07;;;;;;;;;;5038273;28;20484;-79
2023/12/20 11:04:20;;;;;;;4.03;2.37;;;;;;;;;;5039118;28;20495;-79
2023/12/20 11:06:48;;;;;;;7.87;1.60;;;;;;;;;;5038178;28;20556;-79
2023/12/20 11:09:18;;;;;;;3.90;1.43;;;;;;;;;;5039303;28;20433;-79
2023/12/20 11:11:57;;;;;;;3.83;1.53;;;;;;;;;;5038988;28;20480;-80
2023/12/20 11:14:28;;;;;;;5.43;2.20;;;;;;;;;;5037221;28;20835;-79
2023/12/20 11:17:06;;;;;;;9.03;1.60;;;;;;;;;;5038551;28;20536;-79
2023/12/20 11:19:32;;;;;;;5.90;2.33;;;;;;;;;;5039403;28;20421;-79
2023/12/20 11:21:58;;;;;;;5.80;1.60;;;;;;;;;;5038519;28;20547;-79
2023/12/20 11:24:26;;;;;;;10.87;2.07;;;;;;;;;;5038249;28;20479;-79
2023/12/20 11:26:56;;;;;;;3.90;1.47;;;;;;;;;;5037863;28;20480;-80
2023/12/20 11:29:34;;;;;;;6.73;3.40;;;;;;;;;;5038686;28;20527;-79
2023/12/20 11:32:02;;;;;;;4.57;1.50;;;;;;;;;;5037434;28;20560;-80
2023/12/20 11:34:29;;;;;;;5.33;1.60;;;;;;;;;;5037592;28;20468;-80
2023/12/20 11:37:00;;;;;;;9.50;3.47;;;;;;;;;;5037656;28;20490;-79
2023/12/20 11:39:27;;;;;;;9.53;2.60;;;;;;;;;;5037196;28;20448;-79
2023/12/20 11:41:56;;;;;;;7.90;2.07;;;;;;;;;;5037350;28;20469;-81
2023/12/20 11:44:22;;;;;;;9.97;1.90;;;;;;;;;;5037385;28;20542;-81
2023/12/20 11:46:50;;;;;;;10.87;2.07;;;;;;;;;;5036897;28;20551;-81
2023/12/20 11:49:17;;;;;;;7.67;2.00;;;;;;;;;;5037616;28;20514;-79
2023/12/20 11:51:43;;;;;;;8.33;2.43;;;;;;;;;;5036753;28;20487;-81
2023/12/20 11:54:11;;;;;;;9.90;2.37;;;;;;;;;;5037130;28;20456;-81
2023/12/20 11:56:37;;;;;;;12.47;3.90;;;;;;;;;;5036371;28;20469;-81
2023/12/20 11:59:05;;;;;;;8.33;2.33;;;;;;;;;;5036928;28;20449;-81
2023/12/20 12:01:32;;;;;;;7.33;2.20;;;;;;;;;;5036275;28;20479;-81
2023/12/20 12:04:08;;;;;;;7.13;2.60;;;;;;;;;;5036727;28;20455;-80
2023/12/20 12:06:35;;;;;;;8.23;2.20;;;;;;;;;;5036091;28;20918;-81
2023/12/20 12:09:03;;;;;;;16.70;3.30;;;;;;;;;;5038108;28;20943;-80
2023/12/20 12:11:30;;;;;;;8.27;2.17;;;;;;;;;;5037144;28;20553;-81
2023/12/20 12:13:56;;;;;;;6.10;1.50;;;;;;;;;;5037864;28;20517;-80
2023/12/20 12:16:23;;;;;;;14.63;2.50;;;;;;;;;;5037976;28;20481;-80
2023/12/20 12:18:56;;;;;;;5.50;1.30;;;;;;;;;;5037738;28;20443;-80
2023/12/20 12:21:24;;;;;;;7.40;2.10;;;;;;;;;;5036794;28;20468;-80
2023/12/20 12:23:51;;;;;;;52.60;10.77;;;;;;;;;;5038851;28;20787;-79
2023/12/20 12:26:18;;;;;;;56.77;8.63;;;;;;;;;;5037080;28;20477;-81
2023/12/20 12:28:46;;;;;;;9.80;2.83;;;;;;;;;;5038142;28;21010;-81
2023/12/20 12:31:15;;;;;;;14.33;2.90;;;;;;;;;;5037476;28;20473;-80
2023/12/20 12:33:45;;;;;;;5.90;3.10;;;;;;;;;;5038067;28;20961;-80
2023/12/20 12:36:15;;;;;;;10.50;3.13;;;;;;;;;;5037763;28;20464;-81
2023/12/20 12:38:44;;;;;;;6.27;2.70;;;;;;;;;;5037319;28;20445;-81
2023/12/20 12:41:10;;;;;;;13.07;3.43;;;;;;;;;;5036513;28;20469;-81
2023/12/20 12:43:37;;;;;;;26.17;6.13;;;;;;;;;;5037335;28;20811;-79
2023/12/20 12:46:03;;;;;;;19.40;4.20;;;;;;;;;;5037597;28;20475;-80
2023/12/20 12:48:30;;;;;;;13.20;4.40;;;;;;;;;;5036725;28;20812;-80
2023/12/20 12:50:59;;;;;;;6.40;2.30;;;;;;;;;;5035030;28;21013;-79
2023/12/20 12:53:26;;;;;;;19.07;3.23;;;;;;;;;;5036709;28;20564;-79
2023/12/20 12:55:54;;;;;;;11.67;3.50;;;;;;;;;;5037627;28;20472;-80
2023/12/20 12:58:20;;;;;;;9.60;2.40;;;;;;;;;;5036721;28;20463;-79
2023/12/20 13:00:48;;;;;;;10.73;2.87;;;;;;;;;;5036498;28;20475;-79
2023/12/20 13:03:14;;;;;;;12.63;3.40;;;;;;;;;;5036703;28;20524;-82
2023/12/20 13:05:41;;;;;;;24.60;5.20;;;;;;;;;;5036801;28;20958;-79
2023/12/20 13:08:07;;;;;;;14.03;3.47;;;;;;;;;;5018774;28;20503;-79
2023/12/20 13:10:34;;;;;;;13.17;2.67;;;;;;;;;;5035883;28;20505;-80
2023/12/20 13:13:02;;;;;;;12.47;3.83;;;;;;;;;;5036475;28;20487;-81
2023/12/20 13:15:28;;;;;;;17.90;6.03;;;;;;;;;;5035732;28;20511;-81
2023/12/20 13:17:55;;;;;;;17.23;4.87;;;;;;;;;;5036588;28;20443;-82
2023/12/20 13:20:21;;;;;;;15.30;3.90;;;;;;;;;;5035379;28;20452;-81
2023/12/20 13:22:48;;;;;;;20.10;3.47;;;;;;;;;;5035114;28;20954;-81
2023/12/20 13:25:15;;;;;;;13.60;3.50;;;;;;;;;;5035464;28;20552;-81
2023/12/20 13:27:42;;;;;;;23.73;4.17;;;;;;;;;;5035436;28;20556;-79
2023/12/20 13:30:11;;;;;;;14.03;3.70;;;;;;;;;;5035723;28;20508;-80
2023/12/20 13:32:38;;;;;;;14.97;3.20;;;;;;;;;;5035371;28;20855;-79
2023/12/20 13:35:05;;;;;;;21.77;4.27;;;;;;;;;;5036476;28;20460;-81
2023/12/20 13:37:31;;;;;;;15.83;4.60;;;;;;;;;;5034915;28;20478;-80
2023/12/20 13:39:58;;;;;;;15.97;3.73;;;;;;;;;;5035323;28;20440;-82
2023/12/20 13:42:27;;;;;;;18.73;3.73;;;;;;;;;;5035258;28;20469;-80
2023/12/20 13:44:54;;;;;;;12.80;3.57;;;;;;;;;;5035848;28;20484;-81
2023/12/20 13:47:22;;;;;;;13.40;3.37;;;;;;;;;;5034924;28;21029;-81
2023/12/20 13:49:48;;;;;;;17.93;4.47;;;;;;;;;;5034909;28;20444;-81
2023/12/20 13:52:16;;;;;;;17.60;3.90;;;;;;;;;;5035352;28;20473;-80
2023/12/20 13:54:43;;;;;;;14.20;3.57;;;;;;;;;;5035592;28;20465;-81
2023/12/20 13:57:09;;;;;;;16.67;3.60;;;;;;;;;;5035567;28;20483;-81
2023/12/20 13:59:36;;;;;;;18.27;4.07;;;;;;;;;;5035531;28;20797;-81
2023/12/20 14:02:03;;;;;;;20.33;4.00;;;;;;;;;;5034732;28;20481;-81
2023/12/20 14:04:31;;;;;;;11.20;3.63;;;;;;;;;;5034641;28;20464;-82
2023/12/20 14:06:57;;;;;;;15.23;3.60;;;;;;;;;;5034835;28;20476;-82
2023/12/20 14:09:25;;;;;;;19.80;3.37;;;;;;;;;;5034054;28;20448;-82
2023/12/20 14:11:50;;;;;;;14.40;2.53;;;;;;;;;;5034369;28;21013;-82
2023/12/20 14:14:17;;;;;;;11.23;3.27;;;;;;;;;;5035294;28;20480;-82
2023/12/20 14:16:44;;;;;;;13.03;3.33;;;;;;;;;;5034610;28;20716;-81
2023/12/20 14:19:11;;;;;;;19.50;4.70;;;;;;;;;;5034573;28;20487;-81
2023/12/20 14:21:39;;;;;;;15.10;3.40;;;;;;;;;;5032920;28;20460;-81
2023/12/20 14:24:06;;;;;;;14.33;3.97;;;;;;;;;;5034530;28;20488;-81
2023/12/20 14:26:32;;;;;;;15.13;4.90;;;;;;;;;;5034507;28;20836;-81
2023/12/20 14:28:59;;;;;;;9.90;2.50;;;;;;;;;;5034369;28;20456;-81
2023/12/20 14:31:26;;;;;;;15.77;3.50;;;;;;;;;;5032876;28;20465;-81
2023/12/20 14:33:54;;;;;;;11.60;3.60;;;;;;;;;;5034287;28;20490;-82